sensor_id;sensor_type;location;lat;lon;timestamp;temperature;humidity
13344;DHT22;6741;48.964;9.406;2023-05-10T00:02:01;13.40;99.90
13344;DHT22;6741;48.964;9.406;2023-05-10T00:04:28;13.40;99.90
13344;DHT22;6741;48.964;9.406;2023-05-10T00:06:55;13.40;99.90
13344;DHT22;6741;48.964;9.406;2023-05-10T00:09:22;13.30;99.90
13344;DHT22;6741;48.964;9.406;2023-05-10T00:11:50;13.30;99.90
13344;DHT22;6741;48.964;9.406;2023-05-10T00:14:17;13.20;99.90
13344;DHT22;6741;48.964;9.406;2023-05-10T00:16:44;13.20;99.90
13344;DHT22;6741;48.964;9.406;2023-05-10T00:19:11;13.10;99.90
13344;DHT22;6741;48.964;9.406;2023-05-10T00:21:38;13.10;99.90
13344;DHT22;6741;48.964;9.406;2023-05-10T00:24:05;13.10;99.90
13344;DHT22;6741;48.964;9.406;2023-05-10T00:26:32;13.10;99.90
13344;DHT22;6741;48.964;9.406;2023-05-10T00:29:00;13.00;99.90
13344;DHT22;6741;48.964;9.406;2023-05-10T00:31:27;13.10;99.90
13344;DHT22;6741;48.964;9.406;2023-05-10T00:33:55;13.00;99.90
13344;DHT22;6741;48.964;9.406;2023-05-10T00:36:22;13.00;99.90
13344;DHT22;6741;48.964;9.406;2023-05-10T00:38:48;12.90;99.90
13344;DHT22;6741;48.964;9.406;2023-05-10T00:41:15;12.90;99.90
13344;DHT22;6741;48.964;9.406;2023-05-10T00:43:42;12.90;99.90
13344;DHT22;6741;48.964;9.406;2023-05-10T00:46:11;12.80;99.90
13344;DHT22;6741;48.964;9.406;2023-05-10T00:48:38;12.80;99.90
13344;DHT22;6741;48.964;9.406;2023-05-10T00:51:05;12.70;99.90
13344;DHT22;6741;48.964;9.406;2023-05-10T00:53:33;12.70;99.90
13344;DHT22;6741;48.964;9.406;2023-05-10T00:56:01;12.70;99.90
13344;DHT22;6741;48.964;9.406;2023-05-10T00:58:28;12.60;99.90
13344;DHT22;6741;48.964;9.406;2023-05-10T01:00:56;12.60;99.90
13344;DHT22;6741;48.964;9.406;2023-05-10T01:03:26;12.60;99.90
13344;DHT22;6741;48.964;9.406;2023-05-10T01:05:52;12.50;99.90
13344;DHT22;6741;48.964;9.406;2023-05-10T01:08:20;12.60;99.90
13344;DHT22;6741;48.964;9.406;2023-05-10T01:10:47;12.50;99.90
13344;DHT22;6741;48.964;9.406;2023-05-10T01:13:23;12.50;99.90
13344;DHT22;6741;48.964;9.406;2023-05-10T01:15:52;12.50;99.90
13344;DHT22;6741;48.964;9.406;2023-05-10T01:18:20;12.50;99.90
13344;DHT22;6741;48.964;9.406;2023-05-10T01:20:57;12.40;99.90
13344;DHT22;6741;48.964;9.406;2023-05-10T01:23:45;12.40;99.90
13344;DHT22;6741;48.964;9.406;2023-05-10T01:26:38;12.30;99.90
13344;DHT22;6741;48.964;9.406;2023-05-10T01:29:44;12.30;99.90
13344;DHT22;6741;48.964;9.406;2023-05-10T01:32:24;12.20;99.90
13344;DHT22;6741;48.964;9.406;2023-05-10T01:34:59;12.10;99.90
13344;DHT22;6741;48.964;9.406;2023-05-10T01:37:33;12.10;99.90
13344;DHT22;6741;48.964;9.406;2023-05-10T01:40:08;12.10;99.90
13344;DHT22;6741;48.964;9.406;2023-05-10T01:42:40;12.10;99.90
13344;DHT22;6741;48.964;9.406;2023-05-10T01:45:14;12.10;99.90
13344;DHT22;6741;48.964;9.406;2023-05-10T01:47:46;12.10;99.90
13344;DHT22;6741;48.964;9.406;2023-05-10T01:50:19;12.10;99.90
13344;DHT22;6741;48.964;9.406;2023-05-10T01:52:51;12.00;99.90
13344;DHT22;6741;48.964;9.406;2023-05-10T01:55:20;12.00;99.90
13344;DHT22;6741;48.964;9.406;2023-05-10T01:57:52;12.10;99.90
13344;DHT22;6741;48.964;9.406;2023-05-10T02:00:23;12.00;99.90
13344;DHT22;6741;48.964;9.406;2023-05-10T02:02:53;12.00;99.90
13344;DHT22;6741;48.964;9.406;2023-05-10T02:05:22;12.00;99.90
13344;DHT22;6741;48.964;9.406;2023-05-10T02:07:49;12.00;99.90
13344;DHT22;6741;48.964;9.406;2023-05-10T02:10:17;12.00;99.90
13344;DHT22;6741;48.964;9.406;2023-05-10T02:12:47;12.00;99.90
13344;DHT22;6741;48.964;9.406;2023-05-10T02:15:18;12.00;99.90
13344;DHT22;6741;48.964;9.406;2023-05-10T02:17:47;12.00;99.90
13344;DHT22;6741;48.964;9.406;2023-05-10T02:20:19;12.00;99.90
13344;DHT22;6741;48.964;9.406;2023-05-10T02:22:49;12.00;99.90
13344;DHT22;6741;48.964;9.406;2023-05-10T02:25:18;12.00;99.90
13344;DHT22;6741;48.964;9.406;2023-05-10T02:27:46;11.90;99.90
13344;DHT22;6741;48.964;9.406;2023-05-10T02:30:15;11.90;99.90
13344;DHT22;6741;48.964;9.406;2023-05-10T02:32:43;11.90;99.90
13344;DHT22;6741;48.964;9.406;2023-05-10T02:35:11;12.00;99.90
13344;DHT22;6741;48.964;9.406;2023-05-10T02:37:40;11.90;99.90
13344;DHT22;6741;48.964;9.406;2023-05-10T02:40:08;11.90;99.90
13344;DHT22;6741;48.964;9.406;2023-05-10T02:42:38;11.90;99.90
13344;DHT22;6741;48.964;9.406;2023-05-10T02:45:10;11.90;99.90
13344;DHT22;6741;48.964;9.406;2023-05-10T02:47:38;11.90;99.90
13344;DHT22;6741;48.964;9.406;2023-05-10T02:50:06;11.90;99.90
13344;DHT22;6741;48.964;9.406;2023-05-10T02:52:42;11.90;99.90
13344;DHT22;6741;48.964;9.406;2023-05-10T02:55:12;11.80;99.90
13344;DHT22;6741;48.964;9.406;2023-05-10T02:57:46;11.80;99.90
13344;DHT22;6741;48.964;9.406;2023-05-10T03:00:15;11.80;99.90
13344;DHT22;6741;48.964;9.406;2023-05-10T03:02:42;11.90;99.90
13344;DHT22;6741;48.964;9.406;2023-05-10T03:05:09;11.80;99.90
13344;DHT22;6741;48.964;9.406;2023-05-10T03:07:36;11.80;99.90
13344;DHT22;6741;48.964;9.406;2023-05-10T03:10:05;11.90;99.90
13344;DHT22;6741;48.964;9.406;2023-05-10T03:12:47;11.90;99.90
13344;DHT22;6741;48.964;9.406;2023-05-10T03:15:28;11.90;99.90
13344;DHT22;6741;48.964;9.406;2023-05-10T03:18:04;11.90;99.90
13344;DHT22;6741;48.964;9.406;2023-05-10T03:20:35;12.00;99.90
13344;DHT22;6741;48.964;9.406;2023-05-10T03:23:07;12.00;99.90
13344;DHT22;6741;48.964;9.406;2023-05-10T03:25:35;12.00;99.90
13344;DHT22;6741;48.964;9.406;2023-05-10T03:28:04;12.00;99.90
13344;DHT22;6741;48.964;9.406;2023-05-10T03:30:32;12.00;99.90
13344;DHT22;6741;48.964;9.406;2023-05-10T03:33:04;12.10;99.90
13344;DHT22;6741;48.964;9.406;2023-05-10T03:35:32;12.10;99.90
13344;DHT22;6741;48.964;9.406;2023-05-10T03:37:59;12.10;99.90
13344;DHT22;6741;48.964;9.406;2023-05-10T03:40:26;12.10;99.90
13344;DHT22;6741;48.964;9.406;2023-05-10T03:42:55;12.10;99.90
13344;DHT22;6741;48.964;9.406;2023-05-10T03:45:22;12.10;99.90
13344;DHT22;6741;48.964;9.406;2023-05-10T03:47:49;12.20;99.90
13344;DHT22;6741;48.964;9.406;2023-05-10T03:50:16;12.10;99.90
13344;DHT22;6741;48.964;9.406;2023-05-10T03:52:43;12.10;99.90
13344;DHT22;6741;48.964;9.406;2023-05-10T03:55:11;12.10;99.90
13344;DHT22;6741;48.964;9.406;2023-05-10T03:57:38;12.10;99.90
13344;DHT22;6741;48.964;9.406;2023-05-10T04:00:07;12.10;99.90
13344;DHT22;6741;48.964;9.406;2023-05-10T04:02:35;12.20;99.90
13344;DHT22;6741;48.964;9.406;2023-05-10T04:05:02;12.20;99.90
13344;DHT22;6741;48.964;9.406;2023-05-10T04:07:29;12.20;99.90
13344;DHT22;6741;48.964;9.406;2023-05-10T04:09:55;12.20;99.90
13344;DHT22;6741;48.964;9.406;2023-05-10T04:12:22;12.20;99.90
13344;DHT22;6741;48.964;9.406;2023-05-10T04:14:49;12.20;99.90
13344;DHT22;6741;48.964;9.406;2023-05-10T04:17:18;12.20;99.90
13344;DHT22;6741;48.964;9.406;2023-05-10T04:19:44;12.30;99.90
13344;DHT22;6741;48.964;9.406;2023-05-10T04:22:11;12.20;99.90
13344;DHT22;6741;48.964;9.406;2023-05-10T04:24:38;12.20;99.90
13344;DHT22;6741;48.964;9.406;2023-05-10T04:27:05;12.20;99.90
13344;DHT22;6741;48.964;9.406;2023-05-10T04:29:32;12.20;99.90
13344;DHT22;6741;48.964;9.406;2023-05-10T04:31:59;12.30;99.90
13344;DHT22;6741;48.964;9.406;2023-05-10T04:34:27;12.30;99.90
13344;DHT22;6741;48.964;9.406;2023-05-10T04:36:54;12.30;99.90
13344;DHT22;6741;48.964;9.406;2023-05-10T04:39:21;12.40;99.90
13344;DHT22;6741;48.964;9.406;2023-05-10T04:41:48;12.40;99.90
13344;DHT22;6741;48.964;9.406;2023-05-10T04:44:16;12.40;99.90
13344;DHT22;6741;48.964;9.406;2023-05-10T04:46:43;12.40;99.90
13344;DHT22;6741;48.964;9.406;2023-05-10T04:49:10;12.30;99.90
13344;DHT22;6741;48.964;9.406;2023-05-10T04:51:38;12.30;99.90
13344;DHT22;6741;48.964;9.406;2023-05-10T04:54:05;12.30;99.90
13344;DHT22;6741;48.964;9.406;2023-05-10T04:56:33;12.40;99.90
13344;DHT22;6741;48.964;9.406;2023-05-10T04:58:59;12.40;99.90
13344;DHT22;6741;48.964;9.406;2023-05-10T05:01:27;12.40;99.90
13344;DHT22;6741;48.964;9.406;2023-05-10T05:03:54;12.40;99.90
13344;DHT22;6741;48.964;9.406;2023-05-10T05:06:21;12.40;99.90
13344;DHT22;6741;48.964;9.406;2023-05-10T05:08:49;12.40;99.90
13344;DHT22;6741;48.964;9.406;2023-05-10T05:11:17;12.40;99.90
13344;DHT22;6741;48.964;9.406;2023-05-10T05:13:44;12.40;99.90
13344;DHT22;6741;48.964;9.406;2023-05-10T05:16:11;12.50;99.90
13344;DHT22;6741;48.964;9.406;2023-05-10T05:18:38;12.40;99.90
13344;DHT22;6741;48.964;9.406;2023-05-10T05:21:13;12.50;99.90
13344;DHT22;6741;48.964;9.406;2023-05-10T05:23:40;12.50;99.90
13344;DHT22;6741;48.964;9.406;2023-05-10T05:26:09;12.50;99.90
13344;DHT22;6741;48.964;9.406;2023-05-10T05:28:36;12.50;99.90
13344;DHT22;6741;48.964;9.406;2023-05-10T05:31:04;12.60;99.90
13344;DHT22;6741;48.964;9.406;2023-05-10T05:33:34;12.50;99.90
13344;DHT22;6741;48.964;9.406;2023-05-10T05:36:02;12.60;99.90
13344;DHT22;6741;48.964;9.406;2023-05-10T05:38:29;12.60;99.90
13344;DHT22;6741;48.964;9.406;2023-05-10T05:40:56;12.60;99.90
13344;DHT22;6741;48.964;9.406;2023-05-10T05:43:24;12.60;99.90
13344;DHT22;6741;48.964;9.406;2023-05-10T05:45:52;12.70;99.90
13344;DHT22;6741;48.964;9.406;2023-05-10T05:48:19;12.70;99.90
13344;DHT22;6741;48.964;9.406;2023-05-10T05:50:46;12.80;99.90
13344;DHT22;6741;48.964;9.406;2023-05-10T05:53:13;12.90;99.90
13344;DHT22;6741;48.964;9.406;2023-05-10T05:55:51;12.90;99.90
13344;DHT22;6741;48.964;9.406;2023-05-10T05:58:17;12.90;99.90
13344;DHT22;6741;48.964;9.406;2023-05-10T06:00:46;13.00;99.90
13344;DHT22;6741;48.964;9.406;2023-05-10T06:03:13;13.00;99.90
13344;DHT22;6741;48.964;9.406;2023-05-10T06:05:40;13.10;99.90
13344;DHT22;6741;48.964;9.406;2023-05-10T06:08:06;13.20;99.90
13344;DHT22;6741;48.964;9.406;2023-05-10T06:10:33;13.10;99.90
13344;DHT22;6741;48.964;9.406;2023-05-10T06:13:00;13.00;99.90
13344;DHT22;6741;48.964;9.406;2023-05-10T06:15:27;13.20;99.90
13344;DHT22;6741;48.964;9.406;2023-05-10T06:17:56;13.20;99.90
13344;DHT22;6741;48.964;9.406;2023-05-10T06:20:22;13.20;99.90
13344;DHT22;6741;48.964;9.406;2023-05-10T06:22:49;13.30;99.90
13344;DHT22;6741;48.964;9.406;2023-05-10T06:25:16;13.40;99.90
13344;DHT22;6741;48.964;9.406;2023-05-10T06:27:44;13.20;99.90
13344;DHT22;6741;48.964;9.406;2023-05-10T06:30:11;13.40;99.90
13344;DHT22;6741;48.964;9.406;2023-05-10T06:32:41;13.30;99.90
13344;DHT22;6741;48.964;9.406;2023-05-10T06:35:10;13.40;99.90
13344;DHT22;6741;48.964;9.406;2023-05-10T06:37:37;13.40;99.90
13344;DHT22;6741;48.964;9.406;2023-05-10T06:40:06;13.30;99.90
13344;DHT22;6741;48.964;9.406;2023-05-10T06:42:33;13.20;99.90
13344;DHT22;6741;48.964;9.406;2023-05-10T06:45:00;13.40;99.90
13344;DHT22;6741;48.964;9.406;2023-05-10T06:47:27;13.20;99.90
13344;DHT22;6741;48.964;9.406;2023-05-10T06:49:54;13.10;99.90
13344;DHT22;6741;48.964;9.406;2023-05-10T06:52:23;13.30;99.90
13344;DHT22;6741;48.964;9.406;2023-05-10T06:54:49;13.30;99.90
13344;DHT22;6741;48.964;9.406;2023-05-10T06:57:17;13.40;99.90
13344;DHT22;6741;48.964;9.406;2023-05-10T06:59:44;13.30;99.90
13344;DHT22;6741;48.964;9.406;2023-05-10T07:02:11;13.40;99.90
13344;DHT22;6741;48.964;9.406;2023-05-10T07:04:40;13.50;99.90
13344;DHT22;6741;48.964;9.406;2023-05-10T07:07:07;13.50;99.90
13344;DHT22;6741;48.964;9.406;2023-05-10T07:09:36;13.60;99.90
13344;DHT22;6741;48.964;9.406;2023-05-10T07:12:03;13.50;99.90
13344;DHT22;6741;48.964;9.406;2023-05-10T07:14:30;13.50;99.90
13344;DHT22;6741;48.964;9.406;2023-05-10T07:16:57;13.50;99.90
13344;DHT22;6741;48.964;9.406;2023-05-10T07:19:24;13.50;99.90
13344;DHT22;6741;48.964;9.406;2023-05-10T07:21:51;13.40;99.90
13344;DHT22;6741;48.964;9.406;2023-05-10T07:24:18;13.50;99.90
13344;DHT22;6741;48.964;9.406;2023-05-10T07:26:46;13.60;99.90
13344;DHT22;6741;48.964;9.406;2023-05-10T07:29:13;13.60;99.90
13344;DHT22;6741;48.964;9.406;2023-05-10T07:31:40;13.70;99.90
13344;DHT22;6741;48.964;9.406;2023-05-10T07:34:08;13.80;99.90
13344;DHT22;6741;48.964;9.406;2023-05-10T07:36:35;13.90;99.90
13344;DHT22;6741;48.964;9.406;2023-05-10T07:39:02;14.00;99.90
13344;DHT22;6741;48.964;9.406;2023-05-10T07:41:29;14.00;99.90
13344;DHT22;6741;48.964;9.406;2023-05-10T07:43:57;14.10;99.90
13344;DHT22;6741;48.964;9.406;2023-05-10T07:46:24;14.00;99.90
13344;DHT22;6741;48.964;9.406;2023-05-10T07:48:51;14.10;99.90
13344;DHT22;6741;48.964;9.406;2023-05-10T07:51:18;14.10;99.90
13344;DHT22;6741;48.964;9.406;2023-05-10T07:53:45;13.90;99.90
13344;DHT22;6741;48.964;9.406;2023-05-10T07:56:23;13.90;99.90
13344;DHT22;6741;48.964;9.406;2023-05-10T07:58:50;14.00;99.90
13344;DHT22;6741;48.964;9.406;2023-05-10T08:01:19;14.20;99.90
13344;DHT22;6741;48.964;9.406;2023-05-10T08:03:46;14.30;99.90
13344;DHT22;6741;48.964;9.406;2023-05-10T08:06:13;14.20;99.90
13344;DHT22;6741;48.964;9.406;2023-05-10T08:08:41;14.10;99.90
13344;DHT22;6741;48.964;9.406;2023-05-10T08:11:08;14.10;99.90
13344;DHT22;6741;48.964;9.406;2023-05-10T08:13:35;14.10;99.90
13344;DHT22;6741;48.964;9.406;2023-05-10T08:16:02;14.20;99.90
13344;DHT22;6741;48.964;9.406;2023-05-10T08:18:30;14.20;99.90
13344;DHT22;6741;48.964;9.406;2023-05-10T08:20:57;14.30;99.90
13344;DHT22;6741;48.964;9.406;2023-05-10T08:23:24;14.50;99.90
13344;DHT22;6741;48.964;9.406;2023-05-10T08:25:51;14.50;99.90
13344;DHT22;6741;48.964;9.406;2023-05-10T08:28:18;14.60;99.90
13344;DHT22;6741;48.964;9.406;2023-05-10T08:30:45;14.50;99.90
13344;DHT22;6741;48.964;9.406;2023-05-10T08:33:12;14.40;99.90
13344;DHT22;6741;48.964;9.406;2023-05-10T08:35:40;14.40;99.90
13344;DHT22;6741;48.964;9.406;2023-05-10T08:38:07;14.30;99.90
13344;DHT22;6741;48.964;9.406;2023-05-10T08:40:34;14.40;99.90
13344;DHT22;6741;48.964;9.406;2023-05-10T08:43:05;14.40;99.90
13344;DHT22;6741;48.964;9.406;2023-05-10T08:45:37;14.50;99.90
13344;DHT22;6741;48.964;9.406;2023-05-10T08:48:06;14.60;99.90
13344;DHT22;6741;48.964;9.406;2023-05-10T08:50:36;14.50;99.90
13344;DHT22;6741;48.964;9.406;2023-05-10T08:53:06;14.50;99.90
13344;DHT22;6741;48.964;9.406;2023-05-10T08:55:36;14.60;99.90
13344;DHT22;6741;48.964;9.406;2023-05-10T08:58:04;14.60;99.90
13344;DHT22;6741;48.964;9.406;2023-05-10T09:00:31;14.50;99.90
13344;DHT22;6741;48.964;9.406;2023-05-10T09:02:59;14.60;99.90
13344;DHT22;6741;48.964;9.406;2023-05-10T09:05:26;14.60;99.90
13344;DHT22;6741;48.964;9.406;2023-05-10T09:07:54;14.70;99.90
13344;DHT22;6741;48.964;9.406;2023-05-10T09:10:23;14.80;99.90
13344;DHT22;6741;48.964;9.406;2023-05-10T09:12:53;14.90;99.90
13344;DHT22;6741;48.964;9.406;2023-05-10T09:15:22;14.80;99.90
13344;DHT22;6741;48.964;9.406;2023-05-10T09:17:50;14.80;99.90
13344;DHT22;6741;48.964;9.406;2023-05-10T09:20:17;15.00;99.90
13344;DHT22;6741;48.964;9.406;2023-05-10T09:22:44;15.00;99.90
13344;DHT22;6741;48.964;9.406;2023-05-10T09:25:12;14.90;99.90
13344;DHT22;6741;48.964;9.406;2023-05-10T09:27:44;15.00;99.90
13344;DHT22;6741;48.964;9.406;2023-05-10T09:30:15;15.00;99.90
13344;DHT22;6741;48.964;9.406;2023-05-10T09:32:45;15.10;99.90
13344;DHT22;6741;48.964;9.406;2023-05-10T09:35:14;15.10;99.90
13344;DHT22;6741;48.964;9.406;2023-05-10T09:37:42;15.00;96.80
13344;DHT22;6741;48.964;9.406;2023-05-10T09:40:12;14.90;98.70
13344;DHT22;6741;48.964;9.406;2023-05-10T09:42:49;15.30;99.90
13344;DHT22;6741;48.964;9.406;2023-05-10T09:45:17;15.00;99.90
13344;DHT22;6741;48.964;9.406;2023-05-10T09:47:45;14.70;99.90
13344;DHT22;6741;48.964;9.406;2023-05-10T09:50:12;14.70;99.90
13344;DHT22;6741;48.964;9.406;2023-05-10T09:52:47;14.40;99.90
13344;DHT22;6741;48.964;9.406;2023-05-10T09:55:15;14.30;99.90
13344;DHT22;6741;48.964;9.406;2023-05-10T09:57:43;14.10;99.90
13344;DHT22;6741;48.964;9.406;2023-05-10T10:00:16;14.30;99.90
13344;DHT22;6741;48.964;9.406;2023-05-10T10:02:45;14.20;99.90
13344;DHT22;6741;48.964;9.406;2023-05-10T10:05:13;14.10;99.90
13344;DHT22;6741;48.964;9.406;2023-05-10T10:07:40;14.20;99.90
13344;DHT22;6741;48.964;9.406;2023-05-10T10:10:08;14.40;99.90
13344;DHT22;6741;48.964;9.406;2023-05-10T10:12:38;14.30;99.90
13344;DHT22;6741;48.964;9.406;2023-05-10T10:15:08;14.50;99.90
13344;DHT22;6741;48.964;9.406;2023-05-10T10:17:36;14.60;99.90
13344;DHT22;6741;48.964;9.406;2023-05-10T10:20:05;14.70;99.90
13344;DHT22;6741;48.964;9.406;2023-05-10T10:22:33;15.00;99.90
13344;DHT22;6741;48.964;9.406;2023-05-10T10:25:00;15.00;99.90
13344;DHT22;6741;48.964;9.406;2023-05-10T10:27:35;15.50;99.90
13344;DHT22;6741;48.964;9.406;2023-05-10T10:30:11;15.40;96.30
13344;DHT22;6741;48.964;9.406;2023-05-10T10:32:52;16.00;99.90
13344;DHT22;6741;48.964;9.406;2023-05-10T10:35:24;16.20;37.00
13344;DHT22;6741;48.964;9.406;2023-05-10T10:37:51;16.40;1.00
13344;DHT22;6741;48.964;9.406;2023-05-10T10:40:28;15.80;22.40
13344;DHT22;6741;48.964;9.406;2023-05-10T10:42:56;16.50;1.00
13344;DHT22;6741;48.964;9.406;2023-05-10T10:45:25;16.70;1.00
13344;DHT22;6741;48.964;9.406;2023-05-10T10:48:19;16.60;1.00
13344;DHT22;6741;48.964;9.406;2023-05-10T10:50:46;17.40;99.90
13344;DHT22;6741;48.964;9.406;2023-05-10T10:53:13;17.00;99.90
13344;DHT22;6741;48.964;9.406;2023-05-10T10:55:46;16.60;1.00
13344;DHT22;6741;48.964;9.406;2023-05-10T10:58:29;16.20;1.00
13344;DHT22;6741;48.964;9.406;2023-05-10T11:01:13;15.70;1.00
13344;DHT22;6741;48.964;9.406;2023-05-10T11:03:54;15.30;1.00
13344;DHT22;6741;48.964;9.406;2023-05-10T11:06:28;15.10;1.00
13344;DHT22;6741;48.964;9.406;2023-05-10T11:08:57;15.00;1.00
13344;DHT22;6741;48.964;9.406;2023-05-10T11:11:24;15.30;25.60
13344;DHT22;6741;48.964;9.406;2023-05-10T11:13:51;15.60;1.00
13344;DHT22;6741;48.964;9.406;2023-05-10T11:16:21;15.90;1.00
13344;DHT22;6741;48.964;9.406;2023-05-10T11:18:59;16.00;1.00
13344;DHT22;6741;48.964;9.406;2023-05-10T11:21:27;16.10;1.00
13344;DHT22;6741;48.964;9.406;2023-05-10T11:23:56;16.30;1.00
13344;DHT22;6741;48.964;9.406;2023-05-10T11:26:24;16.20;1.00
13344;DHT22;6741;48.964;9.406;2023-05-10T11:28:53;15.70;1.00
13344;DHT22;6741;48.964;9.406;2023-05-10T11:31:23;15.40;1.00
13344;DHT22;6741;48.964;9.406;2023-05-10T11:33:53;15.00;46.90
13344;DHT22;6741;48.964;9.406;2023-05-10T11:36:22;14.40;31.10
13344;DHT22;6741;48.964;9.406;2023-05-10T11:38:51;14.30;16.50
13344;DHT22;6741;48.964;9.406;2023-05-10T11:41:19;14.20;11.90
13344;DHT22;6741;48.964;9.406;2023-05-10T11:43:49;14.30;9.30
13344;DHT22;6741;48.964;9.406;2023-05-10T11:46:20;14.20;1.00
13344;DHT22;6741;48.964;9.406;2023-05-10T11:48:49;14.40;1.00
13344;DHT22;6741;48.964;9.406;2023-05-10T11:51:20;14.50;1.00
13344;DHT22;6741;48.964;9.406;2023-05-10T11:53:49;14.80;1.00
13344;DHT22;6741;48.964;9.406;2023-05-10T11:56:18;15.30;1.00
13344;DHT22;6741;48.964;9.406;2023-05-10T11:58:52;15.90;1.00
13344;DHT22;6741;48.964;9.406;2023-05-10T12:01:21;15.80;1.00
13344;DHT22;6741;48.964;9.406;2023-05-10T12:03:50;16.00;1.00
13344;DHT22;6741;48.964;9.406;2023-05-10T12:06:18;15.30;1.00
13344;DHT22;6741;48.964;9.406;2023-05-10T12:08:47;15.50;1.00
13344;DHT22;6741;48.964;9.406;2023-05-10T12:11:18;15.50;1.00
13344;DHT22;6741;48.964;9.406;2023-05-10T12:13:47;15.60;1.00
13344;DHT22;6741;48.964;9.406;2023-05-10T12:16:16;15.90;1.00
13344;DHT22;6741;48.964;9.406;2023-05-10T12:18:44;16.00;1.00
13344;DHT22;6741;48.964;9.406;2023-05-10T12:21:13;15.80;1.00
13344;DHT22;6741;48.964;9.406;2023-05-10T12:23:40;15.80;1.00
13344;DHT22;6741;48.964;9.406;2023-05-10T12:26:08;15.90;1.00
13344;DHT22;6741;48.964;9.406;2023-05-10T12:28:36;16.20;1.00
13344;DHT22;6741;48.964;9.406;2023-05-10T12:31:05;16.40;1.00
13344;DHT22;6741;48.964;9.406;2023-05-10T12:33:38;16.20;1.00
13344;DHT22;6741;48.964;9.406;2023-05-10T12:36:07;16.00;1.00
13344;DHT22;6741;48.964;9.406;2023-05-10T12:38:37;15.60;1.00
13344;DHT22;6741;48.964;9.406;2023-05-10T12:41:06;15.80;1.00
13344;DHT22;6741;48.964;9.406;2023-05-10T12:43:33;15.80;99.90
13344;DHT22;6741;48.964;9.406;2023-05-10T12:46:05;16.10;99.90
13344;DHT22;6741;48.964;9.406;2023-05-10T12:48:32;16.40;1.00
13344;DHT22;6741;48.964;9.406;2023-05-10T12:51:00;16.20;99.90
13344;DHT22;6741;48.964;9.406;2023-05-10T12:53:27;16.00;1.00
13344;DHT22;6741;48.964;9.406;2023-05-10T12:55:56;16.00;88.80
13344;DHT22;6741;48.964;9.406;2023-05-10T12:58:24;16.00;1.00
13344;DHT22;6741;48.964;9.406;2023-05-10T13:00:51;15.90;99.90
13344;DHT22;6741;48.964;9.406;2023-05-10T13:03:19;15.80;99.90
13344;DHT22;6741;48.964;9.406;2023-05-10T13:05:46;15.70;1.00
13344;DHT22;6741;48.964;9.406;2023-05-10T13:08:14;15.50;1.00
13344;DHT22;6741;48.964;9.406;2023-05-10T13:10:41;15.50;1.00
13344;DHT22;6741;48.964;9.406;2023-05-10T13:13:10;15.60;99.90
13344;DHT22;6741;48.964;9.406;2023-05-10T13:15:37;15.60;1.00
13344;DHT22;6741;48.964;9.406;2023-05-10T13:18:04;15.70;1.00
13344;DHT22;6741;48.964;9.406;2023-05-10T13:20:30;16.00;87.80
13344;DHT22;6741;48.964;9.406;2023-05-10T13:22:57;15.80;1.00
13344;DHT22;6741;48.964;9.406;2023-05-10T13:25:25;15.90;1.00
13344;DHT22;6741;48.964;9.406;2023-05-10T13:27:52;15.80;1.00
13344;DHT22;6741;48.964;9.406;2023-05-10T13:30:20;15.50;99.70
13344;DHT22;6741;48.964;9.406;2023-05-10T13:32:49;15.70;99.90
13344;DHT22;6741;48.964;9.406;2023-05-10T13:35:16;15.90;99.90
13344;DHT22;6741;48.964;9.406;2023-05-10T13:38:12;16.20;99.90
13344;DHT22;6741;48.964;9.406;2023-05-10T13:44:01;16.20;90.70
13344;DHT22;6741;48.964;9.406;2023-05-10T13:46:33;15.90;1.00
13344;DHT22;6741;48.964;9.406;2023-05-10T13:49:04;15.90;99.90
13344;DHT22;6741;48.964;9.406;2023-05-10T13:51:31;16.00;1.00
13344;DHT22;6741;48.964;9.406;2023-05-10T13:53:58;16.10;10.20
13344;DHT22;6741;48.964;9.406;2023-05-10T13:56:30;16.10;99.90
13344;DHT22;6741;48.964;9.406;2023-05-10T13:59:00;16.20;1.00
13344;DHT22;6741;48.964;9.406;2023-05-10T14:01:33;16.20;99.90
13344;DHT22;6741;48.964;9.406;2023-05-10T14:04:01;16.30;1.00
13344;DHT22;6741;48.964;9.406;2023-05-10T14:06:29;16.10;99.90
13344;DHT22;6741;48.964;9.406;2023-05-10T14:08:57;16.10;1.00
13344;DHT22;6741;48.964;9.406;2023-05-10T14:11:25;16.30;99.90
13344;DHT22;6741;48.964;9.406;2023-05-10T14:13:54;16.10;15.20
13344;DHT22;6741;48.964;9.406;2023-05-10T14:16:23;16.10;99.90
13344;DHT22;6741;48.964;9.406;2023-05-10T14:18:53;15.90;93.50
13344;DHT22;6741;48.964;9.406;2023-05-10T14:21:22;15.70;99.90
13344;DHT22;6741;48.964;9.406;2023-05-10T14:23:50;15.70;1.00
13344;DHT22;6741;48.964;9.406;2023-05-10T14:26:18;15.60;1.00
13344;DHT22;6741;48.964;9.406;2023-05-10T14:28:46;15.60;29.80
13344;DHT22;6741;48.964;9.406;2023-05-10T14:31:17;15.60;1.00
13344;DHT22;6741;48.964;9.406;2023-05-10T14:33:46;15.80;99.90
13344;DHT22;6741;48.964;9.406;2023-05-10T14:36:16;16.00;1.00
13344;DHT22;6741;48.964;9.406;2023-05-10T14:38:45;16.10;99.90
13344;DHT22;6741;48.964;9.406;2023-05-10T14:41:13;16.10;1.00
13344;DHT22;6741;48.964;9.406;2023-05-10T14:43:42;16.40;99.90
13344;DHT22;6741;48.964;9.406;2023-05-10T14:46:13;16.50;99.90
13344;DHT22;6741;48.964;9.406;2023-05-10T14:48:41;16.40;75.60
13344;DHT22;6741;48.964;9.406;2023-05-10T14:51:11;16.20;99.90
13344;DHT22;6741;48.964;9.406;2023-05-10T14:53:40;16.20;1.00
13344;DHT22;6741;48.964;9.406;2023-05-10T14:56:07;16.10;1.00
13344;DHT22;6741;48.964;9.406;2023-05-10T14:58:35;15.80;99.90
13344;DHT22;6741;48.964;9.406;2023-05-10T15:01:03;16.00;1.00
13344;DHT22;6741;48.964;9.406;2023-05-10T15:03:33;15.70;1.00
13344;DHT22;6741;48.964;9.406;2023-05-10T15:06:05;15.70;99.90
13344;DHT22;6741;48.964;9.406;2023-05-10T15:08:33;15.80;1.00
13344;DHT22;6741;48.964;9.406;2023-05-10T15:11:03;15.90;1.00
13344;DHT22;6741;48.964;9.406;2023-05-10T15:13:30;16.00;99.90
13344;DHT22;6741;48.964;9.406;2023-05-10T15:15:58;16.00;99.90
13344;DHT22;6741;48.964;9.406;2023-05-10T15:18:27;16.10;99.90
13344;DHT22;6741;48.964;9.406;2023-05-10T15:20:54;16.00;99.90
13344;DHT22;6741;48.964;9.406;2023-05-10T15:23:27;16.00;1.00
13344;DHT22;6741;48.964;9.406;2023-05-10T15:25:55;15.90;99.90
13344;DHT22;6741;48.964;9.406;2023-05-10T15:28:25;16.00;99.90
13344;DHT22;6741;48.964;9.406;2023-05-10T15:30:53;16.10;99.90
13344;DHT22;6741;48.964;9.406;2023-05-10T15:33:20;16.00;1.00
13344;DHT22;6741;48.964;9.406;2023-05-10T15:35:50;15.80;99.90
13344;DHT22;6741;48.964;9.406;2023-05-10T15:38:19;15.70;1.00
13344;DHT22;6741;48.964;9.406;2023-05-10T15:40:47;15.90;1.00
13344;DHT22;6741;48.964;9.406;2023-05-10T15:43:15;15.90;99.90
13344;DHT22;6741;48.964;9.406;2023-05-10T15:45:44;16.00;1.00
13344;DHT22;6741;48.964;9.406;2023-05-10T15:48:11;15.90;8.10
13344;DHT22;6741;48.964;9.406;2023-05-10T15:50:39;16.00;1.00
13344;DHT22;6741;48.964;9.406;2023-05-10T15:53:07;16.10;1.00
13344;DHT22;6741;48.964;9.406;2023-05-10T15:55:34;16.30;99.90
13344;DHT22;6741;48.964;9.406;2023-05-10T15:58:02;16.40;1.00
13344;DHT22;6741;48.964;9.406;2023-05-10T16:00:29;16.40;1.00
13344;DHT22;6741;48.964;9.406;2023-05-10T16:02:58;16.40;1.00
13344;DHT22;6741;48.964;9.406;2023-05-10T16:05:28;16.40;1.00